Terminal Aerodrome Forecast
Issued by NWS

Home | Current Version | Previous Version | Text Only | Print | Product List | Glossary On
Versions: 1 2 3 4 5 6 7 8 9 10 11 12 13 14 15
767
FTUS46 KLOX 272224 AAB
TAFWJF
TAF AMD
KWJF 272224Z 2722/2818 09010KT P6SM SCT200
     FM280000 23007KT P6SM SCT200
     FM280600 VRB03KT P6SM SCT200=

USA.gov is the U.S. government's official web portal to all federal, state and local government web resources and services.